San Diego, CA (92102)

11:26 AM PST on November 21, 2014 (GMT -0800)
Golden Hill | Change Station
CLOSE
Current Station
Personal Weather Station
Location: San Diego, CA
Elevation: 221 ft
Nearby Weather Stations

Elev 221 ft 32.72 °N, 117.14 °W | Updated 21 seconds ago

Partly Cloudy
Partly Cloudy
66.9 °F
Feels Like 66.9 °F
N
6.2
Wind Variable Wind from NW
Gusts 8.7 mph

Today
High -- | Low -- °F
--% Chance of Precip.
Yesterday
High -- | Low -- °F
Precip. -- in
6:24 AM 4:44 PM
Waning Crescent, 1% visible
Pressure 30.00 in
Visibility 10.0 miles
Clouds Scattered Clouds 2700 ft
Scattered Clouds 4200 ft
Dew Point 52 °F
Humidity 58%
Rainfall -999.00 in
Snow Depth Not available.
UV 3 out of 12
Pollen 2.60 out of 12
Air Quality Not available.
Flu Activity Not available.
METAR KSAN 211851Z 30007KT 10SM SCT027 SCT042 20/11 A3000 RMK AO2 SLP158 T02000111

More Conditions Fewer Conditions

Pressure 30.00 in
Visibility 10.0 miles
Clouds Scattered Clouds 2700 ft
Scattered Clouds 4200 ft
Dew Point 52 °F
Humidity 58%
Rainfall -999.00 in
Snow Depth Not available.
UV 3 out of 12
Pollen 2.60 out of 12
Air Quality Not available.
Flu Activity Not available.
METAR KSAN 211851Z 30007KT 10SM SCT027 SCT042 20/11 A3000 RMK AO2 SLP158 T02000111

More Conditions Fewer Conditions

10-Day Weather Forecast

Almanac

Astronomy

Nov. 21, 2014 Rise Set
Actual Time
Civil Twilight
Nautical Twilight
Astronomical Twilight
Moon
Length of Visible Light
Length of Day
Tomorrow will be .
, % of the Moon is Illuminated

Today's Extremes

State Highs State Lows

Community

WunderPhotos

Upload Photos

1,772,703 photos uploaded!

WunderBlogs® & News

Nearby

Air Quality

  Air Quality AQ Index Pollutant
Not available.

Snow Depth

Station Depth Elevation

Earthquake Activity

City Distance Mag. Time & Date
Minimum magnitude displayed is 2.5.

Coastal Water Temperatures

Place Temperature

Nearby Weather Stations